West Dennis, MA (02670)

3:48 PM EST on December 09, 2016 (GMT -0500)
KT1OK @ Yenom Rd, South Dennis | | Change Station

Elev 50 ft 41.67 °N, 70.15 °W | Updated 27 seconds ago

Clear
Clear
36.0 °F
Feels Like 36 °F
N
1.3
Wind Variable Wind from West
Gusts 2.5 mph

Today
High -- | Low -- °F
--% Chance of Precip.
Yesterday
High -- | Low -- °F
Precip. -- in
Pressure 29.96 in
Visibility 10.0 miles
Clouds Clear
Windchill 36 °F
Dew Point 8 °F
Humidity 31%
Rainfall 0.00 in
Snow Depth Not available.
6:56 AM 4:10 PM
Waxing Gibbous, 77% visible
METAR KHYA 091956Z AUTO 31011G17KT 10SM CLR 03/M11 A2996 RMK AO2 SLP146 T00281106
Pressure 29.96 in
Visibility 10.0 miles
Clouds Clear
Windchill 36 °F
Dew Point 8 °F
Humidity 31%
Rainfall 0.00 in
Snow Depth Not available.
6:56 AM 4:10 PM
Waxing Gibbous, 77% visible
METAR KHYA 091956Z AUTO 31011G17KT 10SM CLR 03/M11 A2996 RMK AO2 SLP146 T00281106

10-Day Weather Forecast

Almanac

Astronomy

Dec. 09, 2016 Rise Set
Actual Time
Civil Twilight
Nautical Twilight
Astronomical Twilight
Moon
Length of Visible Light
Length of Day
Tomorrow will be .
, % of the Moon is Illuminated

Today's Extremes

State Highs State Lows

Community

WunderPhotos

Upload Photos

1,956,517 photos uploaded!

WunderBlog® & News

Nearby

Air Quality

  Air Quality AQ Index Pollutant
Not available.

Snow Depth

Station Depth Elevation

Earthquake Activity

City Distance Mag. Time & Date
Minimum magnitude displayed is 2.5.

Coastal Water Temperatures

Place Temperature

Stations

Nearby Weather Stations

Station Location Temp. Windchill Dew Point Humidity Wind Precip. Elev Updated Type
                   

Watches & Warnings

There are currently no watches in effect.